sensor_id;sensor_type;location;lat;lon;timestamp;P1;durP1;ratioP1;P2;durP2;ratioP2
34928;SDS011;21133;48.048;7.724;2022-07-23T00:00:50;14.53;;;5.60;;
34928;SDS011;21133;48.048;7.724;2022-07-23T00:03:16;5.53;;;5.13;;
34928;SDS011;21133;48.048;7.724;2022-07-23T00:05:42;5.50;;;5.10;;
34928;SDS011;21133;48.048;7.724;2022-07-23T00:08:08;6.27;;;5.67;;
34928;SDS011;21133;48.048;7.724;2022-07-23T00:10:34;5.80;;;5.40;;
34928;SDS011;21133;48.048;7.724;2022-07-23T00:13:00;5.13;;;4.87;;
34928;SDS011;21133;48.048;7.724;2022-07-23T00:15:26;4.53;;;4.40;;
34928;SDS011;21133;48.048;7.724;2022-07-23T00:17:52;4.47;;;4.37;;
34928;SDS011;21133;48.048;7.724;2022-07-23T00:20:18;4.80;;;4.50;;
34928;SDS011;21133;48.048;7.724;2022-07-23T00:22:51;5.03;;;4.77;;
34928;SDS011;21133;48.048;7.724;2022-07-23T00:25:18;4.27;;;4.07;;
34928;SDS011;21133;48.048;7.724;2022-07-23T00:27:44;35.60;;;5.37;;
34928;SDS011;21133;48.048;7.724;2022-07-23T00:30:10;5.00;;;4.73;;
34928;SDS011;21133;48.048;7.724;2022-07-23T00:35:12;5.47;;;5.17;;
34928;SDS011;21133;48.048;7.724;2022-07-23T00:37:37;6.30;;;5.40;;
34928;SDS011;21133;48.048;7.724;2022-07-23T00:40:04;6.27;;;5.57;;
34928;SDS011;21133;48.048;7.724;2022-07-23T00:42:31;4.53;;;4.33;;
34928;SDS011;21133;48.048;7.724;2022-07-23T00:44:57;4.53;;;4.33;;
34928;SDS011;21133;48.048;7.724;2022-07-23T00:47:23;4.43;;;4.37;;
34928;SDS011;21133;48.048;7.724;2022-07-23T00:49:49;4.97;;;4.67;;
34928;SDS011;21133;48.048;7.724;2022-07-23T00:52:15;3.90;;;3.80;;
34928;SDS011;21133;48.048;7.724;2022-07-23T00:54:41;3.97;;;3.87;;
34928;SDS011;21133;48.048;7.724;2022-07-23T00:57:08;6.70;;;5.10;;
34928;SDS011;21133;48.048;7.724;2022-07-23T00:59:34;6.00;;;5.47;;
34928;SDS011;21133;48.048;7.724;2022-07-23T01:02:00;5.80;;;5.40;;
34928;SDS011;21133;48.048;7.724;2022-07-23T01:04:26;7.23;;;4.77;;
34928;SDS011;21133;48.048;7.724;2022-07-23T01:06:52;4.90;;;4.60;;
34928;SDS011;21133;48.048;7.724;2022-07-23T01:09:18;12.83;;;5.87;;
34928;SDS011;21133;48.048;7.724;2022-07-23T01:11:44;6.53;;;5.70;;
34928;SDS011;21133;48.048;7.724;2022-07-23T01:14:11;13.57;;;5.30;;
34928;SDS011;21133;48.048;7.724;2022-07-23T01:16:37;6.10;;;5.70;;
34928;SDS011;21133;48.048;7.724;2022-07-23T01:19:03;4.93;;;4.63;;
34928;SDS011;21133;48.048;7.724;2022-07-23T01:21:31;6.10;;;4.97;;
34928;SDS011;21133;48.048;7.724;2022-07-23T01:23:57;6.07;;;5.67;;
34928;SDS011;21133;48.048;7.724;2022-07-23T01:26:23;5.13;;;4.87;;
34928;SDS011;21133;48.048;7.724;2022-07-23T01:28:49;5.70;;;5.50;;
34928;SDS011;21133;48.048;7.724;2022-07-23T01:31:15;6.07;;;5.63;;
34928;SDS011;21133;48.048;7.724;2022-07-23T01:33:42;5.83;;;5.50;;
34928;SDS011;21133;48.048;7.724;2022-07-23T01:36:08;5.77;;;5.33;;
34928;SDS011;21133;48.048;7.724;2022-07-23T01:38:34;7.63;;;6.97;;
34928;SDS011;21133;48.048;7.724;2022-07-23T01:41:01;8.77;;;5.60;;
34928;SDS011;21133;48.048;7.724;2022-07-23T01:43:27;6.20;;;5.80;;
34928;SDS011;21133;48.048;7.724;2022-07-23T01:45:53;5.90;;;5.60;;
34928;SDS011;21133;48.048;7.724;2022-07-23T01:48:19;8.30;;;5.33;;
34928;SDS011;21133;48.048;7.724;2022-07-23T01:50:46;5.67;;;5.47;;
34928;SDS011;21133;48.048;7.724;2022-07-23T01:53:12;6.33;;;6.07;;
34928;SDS011;21133;48.048;7.724;2022-07-23T01:55:38;6.73;;;6.23;;
34928;SDS011;21133;48.048;7.724;2022-07-23T01:58:04;5.97;;;5.73;;
34928;SDS011;21133;48.048;7.724;2022-07-23T02:00:30;5.83;;;5.53;;
34928;SDS011;21133;48.048;7.724;2022-07-23T02:02:56;5.10;;;4.90;;
34928;SDS011;21133;48.048;7.724;2022-07-23T02:05:23;7.23;;;5.70;;
34928;SDS011;21133;48.048;7.724;2022-07-23T02:07:49;6.00;;;5.60;;
34928;SDS011;21133;48.048;7.724;2022-07-23T02:10:15;6.30;;;6.00;;
34928;SDS011;21133;48.048;7.724;2022-07-23T02:12:41;5.83;;;5.53;;
34928;SDS011;21133;48.048;7.724;2022-07-23T02:15:07;6.20;;;5.70;;
34928;SDS011;21133;48.048;7.724;2022-07-23T02:17:33;5.97;;;5.50;;
34928;SDS011;21133;48.048;7.724;2022-07-23T02:19:59;5.70;;;5.50;;
34928;SDS011;21133;48.048;7.724;2022-07-23T02:22:25;4.70;;;4.50;;
34928;SDS011;21133;48.048;7.724;2022-07-23T02:24:51;4.87;;;4.57;;
34928;SDS011;21133;48.048;7.724;2022-07-23T02:27:17;5.80;;;5.50;;
34928;SDS011;21133;48.048;7.724;2022-07-23T02:29:43;5.83;;;5.50;;
34928;SDS011;21133;48.048;7.724;2022-07-23T02:32:09;6.00;;;5.47;;
34928;SDS011;21133;48.048;7.724;2022-07-23T02:34:35;5.10;;;4.80;;
34928;SDS011;21133;48.048;7.724;2022-07-23T02:37:01;6.20;;;5.70;;
34928;SDS011;21133;48.048;7.724;2022-07-23T02:39:27;5.43;;;5.10;;
34928;SDS011;21133;48.048;7.724;2022-07-23T02:41:53;5.20;;;5.00;;
34928;SDS011;21133;48.048;7.724;2022-07-23T02:44:19;4.93;;;4.73;;
34928;SDS011;21133;48.048;7.724;2022-07-23T02:46:45;5.40;;;4.90;;
34928;SDS011;21133;48.048;7.724;2022-07-23T02:49:11;5.03;;;4.83;;
34928;SDS011;21133;48.048;7.724;2022-07-23T02:51:37;4.97;;;4.67;;
34928;SDS011;21133;48.048;7.724;2022-07-23T02:54:03;5.57;;;5.23;;
34928;SDS011;21133;48.048;7.724;2022-07-23T02:56:29;5.93;;;5.33;;
34928;SDS011;21133;48.048;7.724;2022-07-23T02:58:55;5.30;;;5.00;;
34928;SDS011;21133;48.048;7.724;2022-07-23T03:01:21;6.07;;;5.30;;
34928;SDS011;21133;48.048;7.724;2022-07-23T03:03:47;5.37;;;5.10;;
34928;SDS011;21133;48.048;7.724;2022-07-23T03:06:13;5.80;;;5.00;;
34928;SDS011;21133;48.048;7.724;2022-07-23T03:08:39;5.73;;;5.50;;
34928;SDS011;21133;48.048;7.724;2022-07-23T03:11:05;4.63;;;4.37;;
34928;SDS011;21133;48.048;7.724;2022-07-23T03:13:36;4.50;;;4.40;;
34928;SDS011;21133;48.048;7.724;2022-07-23T03:16:01;5.83;;;5.57;;
34928;SDS011;21133;48.048;7.724;2022-07-23T03:18:28;4.63;;;4.37;;
34928;SDS011;21133;48.048;7.724;2022-07-23T03:20:54;5.83;;;5.53;;
34928;SDS011;21133;48.048;7.724;2022-07-23T03:23:20;5.27;;;5.07;;
34928;SDS011;21133;48.048;7.724;2022-07-23T03:25:46;5.97;;;5.03;;
34928;SDS011;21133;48.048;7.724;2022-07-23T03:28:13;5.80;;;5.53;;
34928;SDS011;21133;48.048;7.724;2022-07-23T03:30:40;6.97;;;6.33;;
34928;SDS011;21133;48.048;7.724;2022-07-23T03:33:06;6.00;;;5.63;;
34928;SDS011;21133;48.048;7.724;2022-07-23T03:35:32;5.03;;;4.87;;
34928;SDS011;21133;48.048;7.724;2022-07-23T03:37:58;5.20;;;4.97;;
34928;SDS011;21133;48.048;7.724;2022-07-23T03:40:24;5.17;;;4.97;;
34928;SDS011;21133;48.048;7.724;2022-07-23T03:42:50;5.80;;;5.60;;
34928;SDS011;21133;48.048;7.724;2022-07-23T03:45:16;6.90;;;6.30;;
34928;SDS011;21133;48.048;7.724;2022-07-23T03:47:42;5.53;;;5.07;;
34928;SDS011;21133;48.048;7.724;2022-07-23T03:50:09;9.73;;;5.80;;
34928;SDS011;21133;48.048;7.724;2022-07-23T03:52:35;5.70;;;5.27;;
34928;SDS011;21133;48.048;7.724;2022-07-23T03:55:01;6.37;;;6.07;;
34928;SDS011;21133;48.048;7.724;2022-07-23T03:57:27;10.63;;;6.17;;
34928;SDS011;21133;48.048;7.724;2022-07-23T03:59:54;6.13;;;5.80;;
34928;SDS011;21133;48.048;7.724;2022-07-23T04:02:20;6.07;;;5.77;;
34928;SDS011;21133;48.048;7.724;2022-07-23T04:04:46;5.83;;;5.53;;
34928;SDS011;21133;48.048;7.724;2022-07-23T04:07:12;6.60;;;6.10;;
34928;SDS011;21133;48.048;7.724;2022-07-23T04:09:38;9.23;;;6.20;;
34928;SDS011;21133;48.048;7.724;2022-07-23T04:12:07;6.07;;;5.77;;
34928;SDS011;21133;48.048;7.724;2022-07-23T04:14:33;6.13;;;5.93;;
34928;SDS011;21133;48.048;7.724;2022-07-23T04:16:59;5.40;;;5.23;;
34928;SDS011;21133;48.048;7.724;2022-07-23T04:19:25;5.63;;;5.23;;
34928;SDS011;21133;48.048;7.724;2022-07-23T04:21:52;5.67;;;5.27;;
34928;SDS011;21133;48.048;7.724;2022-07-23T04:24:18;7.90;;;6.43;;
34928;SDS011;21133;48.048;7.724;2022-07-23T04:26:44;5.83;;;5.40;;
34928;SDS011;21133;48.048;7.724;2022-07-23T04:29:10;7.13;;;6.63;;
34928;SDS011;21133;48.048;7.724;2022-07-23T04:31:36;6.50;;;6.10;;
34928;SDS011;21133;48.048;7.724;2022-07-23T04:34:02;6.07;;;5.83;;
34928;SDS011;21133;48.048;7.724;2022-07-23T04:36:28;6.67;;;5.60;;
34928;SDS011;21133;48.048;7.724;2022-07-23T04:38:54;6.50;;;6.00;;
34928;SDS011;21133;48.048;7.724;2022-07-23T04:41:20;7.00;;;6.37;;
34928;SDS011;21133;48.048;7.724;2022-07-23T04:43:46;6.37;;;6.03;;
34928;SDS011;21133;48.048;7.724;2022-07-23T04:46:12;5.60;;;5.40;;
34928;SDS011;21133;48.048;7.724;2022-07-23T04:48:38;6.87;;;6.30;;
34928;SDS011;21133;48.048;7.724;2022-07-23T04:51:05;6.93;;;6.17;;
34928;SDS011;21133;48.048;7.724;2022-07-23T04:53:31;5.83;;;5.20;;
34928;SDS011;21133;48.048;7.724;2022-07-23T04:55:57;6.30;;;6.00;;
34928;SDS011;21133;48.048;7.724;2022-07-23T04:58:23;5.23;;;5.03;;
34928;SDS011;21133;48.048;7.724;2022-07-23T05:00:49;6.33;;;5.73;;
34928;SDS011;21133;48.048;7.724;2022-07-23T05:03:15;6.80;;;6.40;;
34928;SDS011;21133;48.048;7.724;2022-07-23T05:05:41;6.13;;;5.73;;
34928;SDS011;21133;48.048;7.724;2022-07-23T05:08:07;6.67;;;6.17;;
34928;SDS011;21133;48.048;7.724;2022-07-23T05:10:33;6.27;;;5.77;;
34928;SDS011;21133;48.048;7.724;2022-07-23T05:12:59;5.67;;;5.47;;
34928;SDS011;21133;48.048;7.724;2022-07-23T05:15:25;6.13;;;5.73;;
34928;SDS011;21133;48.048;7.724;2022-07-23T05:17:51;6.63;;;6.13;;
34928;SDS011;21133;48.048;7.724;2022-07-23T05:20:17;6.20;;;5.90;;
34928;SDS011;21133;48.048;7.724;2022-07-23T05:22:43;6.30;;;6.00;;
34928;SDS011;21133;48.048;7.724;2022-07-23T05:25:09;8.00;;;6.20;;
34928;SDS011;21133;48.048;7.724;2022-07-23T05:27:34;8.70;;;7.00;;
34928;SDS011;21133;48.048;7.724;2022-07-23T05:30:00;7.57;;;6.90;;
34928;SDS011;21133;48.048;7.724;2022-07-23T05:32:26;7.23;;;6.30;;
34928;SDS011;21133;48.048;7.724;2022-07-23T05:34:52;6.43;;;6.03;;
34928;SDS011;21133;48.048;7.724;2022-07-23T05:37:18;6.60;;;6.30;;
34928;SDS011;21133;48.048;7.724;2022-07-23T05:39:44;6.30;;;5.80;;
34928;SDS011;21133;48.048;7.724;2022-07-23T05:42:10;6.80;;;6.20;;
34928;SDS011;21133;48.048;7.724;2022-07-23T05:44:36;6.83;;;6.07;;
34928;SDS011;21133;48.048;7.724;2022-07-23T05:47:02;7.43;;;6.83;;
34928;SDS011;21133;48.048;7.724;2022-07-23T05:49:28;7.07;;;6.40;;
34928;SDS011;21133;48.048;7.724;2022-07-23T05:51:54;16.30;;;7.30;;
34928;SDS011;21133;48.048;7.724;2022-07-23T05:54:20;9.73;;;6.77;;
34928;SDS011;21133;48.048;7.724;2022-07-23T05:56:46;6.20;;;6.00;;
34928;SDS011;21133;48.048;7.724;2022-07-23T05:59:12;7.83;;;7.10;;
34928;SDS011;21133;48.048;7.724;2022-07-23T06:01:39;7.53;;;6.90;;
34928;SDS011;21133;48.048;7.724;2022-07-23T06:04:05;6.57;;;5.97;;
34928;SDS011;21133;48.048;7.724;2022-07-23T06:06:31;7.60;;;7.10;;
34928;SDS011;21133;48.048;7.724;2022-07-23T06:08:57;7.17;;;6.63;;
34928;SDS011;21133;48.048;7.724;2022-07-23T06:11:23;9.20;;;7.57;;
34928;SDS011;21133;48.048;7.724;2022-07-23T06:13:49;7.47;;;6.80;;
34928;SDS011;21133;48.048;7.724;2022-07-23T06:16:15;7.30;;;6.90;;
34928;SDS011;21133;48.048;7.724;2022-07-23T06:18:41;7.33;;;6.77;;
34928;SDS011;21133;48.048;7.724;2022-07-23T06:21:07;6.93;;;6.43;;
34928;SDS011;21133;48.048;7.724;2022-07-23T06:23:33;7.73;;;7.23;;
34928;SDS011;21133;48.048;7.724;2022-07-23T06:25:59;7.87;;;7.33;;
34928;SDS011;21133;48.048;7.724;2022-07-23T06:28:24;8.40;;;7.73;;
34928;SDS011;21133;48.048;7.724;2022-07-23T06:30:50;10.53;;;6.93;;
34928;SDS011;21133;48.048;7.724;2022-07-23T06:33:16;8.70;;;7.90;;
34928;SDS011;21133;48.048;7.724;2022-07-23T06:35:42;10.73;;;8.53;;
34928;SDS011;21133;48.048;7.724;2022-07-23T06:38:08;7.50;;;7.00;;
34928;SDS011;21133;48.048;7.724;2022-07-23T06:40:35;9.67;;;8.17;;
34928;SDS011;21133;48.048;7.724;2022-07-23T06:43:00;9.03;;;8.20;;
34928;SDS011;21133;48.048;7.724;2022-07-23T06:45:26;8.60;;;7.83;;
34928;SDS011;21133;48.048;7.724;2022-07-23T06:47:52;9.13;;;7.90;;
34928;SDS011;21133;48.048;7.724;2022-07-23T06:50:18;9.97;;;8.33;;
34928;SDS011;21133;48.048;7.724;2022-07-23T06:52:44;8.67;;;7.97;;
34928;SDS011;21133;48.048;7.724;2022-07-23T06:55:10;7.40;;;6.90;;
34928;SDS011;21133;48.048;7.724;2022-07-23T06:57:36;11.47;;;8.50;;
34928;SDS011;21133;48.048;7.724;2022-07-23T07:00:03;8.90;;;8.00;;
34928;SDS011;21133;48.048;7.724;2022-07-23T07:02:29;9.20;;;8.30;;
34928;SDS011;21133;48.048;7.724;2022-07-23T07:04:55;8.50;;;7.10;;
34928;SDS011;21133;48.048;7.724;2022-07-23T07:07:21;7.53;;;7.03;;
34928;SDS011;21133;48.048;7.724;2022-07-23T07:09:47;8.67;;;7.67;;
34928;SDS011;21133;48.048;7.724;2022-07-23T07:12:13;8.03;;;7.23;;
34928;SDS011;21133;48.048;7.724;2022-07-23T07:14:39;7.50;;;7.00;;
34928;SDS011;21133;48.048;7.724;2022-07-23T07:17:05;7.37;;;6.67;;
34928;SDS011;21133;48.048;7.724;2022-07-23T07:19:31;7.10;;;6.60;;
34928;SDS011;21133;48.048;7.724;2022-07-23T07:21:57;6.87;;;6.30;;
34928;SDS011;21133;48.048;7.724;2022-07-23T07:24:22;7.37;;;6.70;;
34928;SDS011;21133;48.048;7.724;2022-07-23T07:26:48;6.40;;;6.00;;
34928;SDS011;21133;48.048;7.724;2022-07-23T07:29:14;5.93;;;5.60;;
34928;SDS011;21133;48.048;7.724;2022-07-23T07:31:41;7.00;;;6.60;;
34928;SDS011;21133;48.048;7.724;2022-07-23T07:34:07;18.73;;;6.20;;
34928;SDS011;21133;48.048;7.724;2022-07-23T07:36:32;6.57;;;6.10;;
34928;SDS011;21133;48.048;7.724;2022-07-23T07:38:59;6.63;;;6.10;;
34928;SDS011;21133;48.048;7.724;2022-07-23T07:41:25;7.53;;;7.03;;
34928;SDS011;21133;48.048;7.724;2022-07-23T07:43:51;9.90;;;7.37;;
34928;SDS011;21133;48.048;7.724;2022-07-23T07:46:17;6.47;;;5.87;;
34928;SDS011;21133;48.048;7.724;2022-07-23T07:48:43;7.00;;;6.50;;
34928;SDS011;21133;48.048;7.724;2022-07-23T07:51:09;6.40;;;5.90;;
34928;SDS011;21133;48.048;7.724;2022-07-23T07:53:35;7.07;;;6.67;;
34928;SDS011;21133;48.048;7.724;2022-07-23T07:56:01;7.60;;;5.90;;
34928;SDS011;21133;48.048;7.724;2022-07-23T07:58:27;7.10;;;6.50;;
34928;SDS011;21133;48.048;7.724;2022-07-23T08:00:53;7.50;;;6.83;;
34928;SDS011;21133;48.048;7.724;2022-07-23T08:03:19;6.97;;;6.40;;
34928;SDS011;21133;48.048;7.724;2022-07-23T08:05:45;9.57;;;7.50;;
34928;SDS011;21133;48.048;7.724;2022-07-23T08:08:11;6.43;;;6.03;;
34928;SDS011;21133;48.048;7.724;2022-07-23T08:10:39;8.13;;;6.50;;
34928;SDS011;21133;48.048;7.724;2022-07-23T08:13:05;7.80;;;6.93;;
34928;SDS011;21133;48.048;7.724;2022-07-23T08:15:31;10.10;;;9.07;;
34928;SDS011;21133;48.048;7.724;2022-07-23T08:17:57;7.83;;;7.27;;
34928;SDS011;21133;48.048;7.724;2022-07-23T08:20:24;7.30;;;6.60;;
34928;SDS011;21133;48.048;7.724;2022-07-23T08:22:51;7.87;;;7.20;;
34928;SDS011;21133;48.048;7.724;2022-07-23T08:25:21;7.53;;;7.13;;
34928;SDS011;21133;48.048;7.724;2022-07-23T08:27:47;7.30;;;6.80;;
34928;SDS011;21133;48.048;7.724;2022-07-23T08:30:14;7.80;;;7.27;;
34928;SDS011;21133;48.048;7.724;2022-07-23T08:32:51;8.87;;;7.50;;
34928;SDS011;21133;48.048;7.724;2022-07-23T08:35:18;7.13;;;6.60;;
34928;SDS011;21133;48.048;7.724;2022-07-23T08:37:47;8.07;;;7.57;;
34928;SDS011;21133;48.048;7.724;2022-07-23T08:40:12;6.40;;;6.00;;
34928;SDS011;21133;48.048;7.724;2022-07-23T08:42:38;7.30;;;6.80;;
34928;SDS011;21133;48.048;7.724;2022-07-23T08:45:05;17.37;;;6.33;;
34928;SDS011;21133;48.048;7.724;2022-07-23T08:47:32;9.60;;;7.23;;
34928;SDS011;21133;48.048;7.724;2022-07-23T08:49:59;7.07;;;6.50;;
34928;SDS011;21133;48.048;7.724;2022-07-23T08:52:25;7.67;;;6.97;;
34928;SDS011;21133;48.048;7.724;2022-07-23T08:54:51;8.40;;;7.70;;
34928;SDS011;21133;48.048;7.724;2022-07-23T08:57:18;7.13;;;6.73;;
34928;SDS011;21133;48.048;7.724;2022-07-23T08:59:44;7.70;;;7.00;;
34928;SDS011;21133;48.048;7.724;2022-07-23T09:02:10;9.33;;;8.63;;
34928;SDS011;21133;48.048;7.724;2022-07-23T09:04:36;8.23;;;7.60;;
34928;SDS011;21133;48.048;7.724;2022-07-23T09:07:02;7.33;;;6.93;;
34928;SDS011;21133;48.048;7.724;2022-07-23T09:09:28;7.90;;;7.00;;
34928;SDS011;21133;48.048;7.724;2022-07-23T09:14:38;7.90;;;7.30;;
34928;SDS011;21133;48.048;7.724;2022-07-23T09:17:11;8.13;;;7.43;;
34928;SDS011;21133;48.048;7.724;2022-07-23T09:19:37;8.10;;;7.60;;
34928;SDS011;21133;48.048;7.724;2022-07-23T09:22:16;7.70;;;7.30;;
34928;SDS011;21133;48.048;7.724;2022-07-23T09:27:44;7.03;;;6.63;;
34928;SDS011;21133;48.048;7.724;2022-07-23T09:30:10;6.40;;;5.90;;
34928;SDS011;21133;48.048;7.724;2022-07-23T09:32:36;7.90;;;6.40;;
34928;SDS011;21133;48.048;7.724;2022-07-23T09:35:02;8.10;;;7.30;;
34928;SDS011;21133;48.048;7.724;2022-07-23T09:37:28;7.93;;;7.23;;
34928;SDS011;21133;48.048;7.724;2022-07-23T09:40:02;6.60;;;6.23;;
34928;SDS011;21133;48.048;7.724;2022-07-23T09:42:29;8.00;;;7.20;;
34928;SDS011;21133;48.048;7.724;2022-07-23T09:44:56;7.83;;;7.20;;
34928;SDS011;21133;48.048;7.724;2022-07-23T09:47:23;5.97;;;5.73;;
34928;SDS011;21133;48.048;7.724;2022-07-23T09:52:26;7.83;;;7.03;;
34928;SDS011;21133;48.048;7.724;2022-07-23T09:54:57;8.80;;;7.20;;
34928;SDS011;21133;48.048;7.724;2022-07-23T09:57:24;6.90;;;6.50;;
34928;SDS011;21133;48.048;7.724;2022-07-23T09:59:50;8.60;;;7.27;;
34928;SDS011;21133;48.048;7.724;2022-07-23T10:02:16;7.60;;;6.70;;
34928;SDS011;21133;48.048;7.724;2022-07-23T10:04:43;6.80;;;6.30;;
34928;SDS011;21133;48.048;7.724;2022-07-23T10:07:09;7.40;;;6.80;;
34928;SDS011;21133;48.048;7.724;2022-07-23T10:09:37;7.23;;;6.70;;
34928;SDS011;21133;48.048;7.724;2022-07-23T10:12:04;6.27;;;5.83;;
34928;SDS011;21133;48.048;7.724;2022-07-23T10:14:39;7.80;;;6.77;;
34928;SDS011;21133;48.048;7.724;2022-07-23T10:17:05;12.00;;;8.13;;
34928;SDS011;21133;48.048;7.724;2022-07-23T10:19:32;6.07;;;5.70;;
34928;SDS011;21133;48.048;7.724;2022-07-23T10:22:02;5.37;;;5.17;;
34928;SDS011;21133;48.048;7.724;2022-07-23T10:27:20;5.83;;;5.47;;
34928;SDS011;21133;48.048;7.724;2022-07-23T10:32:26;7.50;;;6.80;;
34928;SDS011;21133;48.048;7.724;2022-07-23T10:34:55;5.93;;;5.53;;
34928;SDS011;21133;48.048;7.724;2022-07-23T10:37:38;6.93;;;6.33;;
34928;SDS011;21133;48.048;7.724;2022-07-23T10:40:08;5.87;;;5.57;;
34928;SDS011;21133;48.048;7.724;2022-07-23T10:42:35;5.93;;;5.53;;
34928;SDS011;21133;48.048;7.724;2022-07-23T10:45:01;6.20;;;5.93;;
34928;SDS011;21133;48.048;7.724;2022-07-23T10:47:47;5.90;;;5.70;;
34928;SDS011;21133;48.048;7.724;2022-07-23T10:53:07;5.20;;;4.90;;
34928;SDS011;21133;48.048;7.724;2022-07-23T10:58:00;5.80;;;5.30;;
34928;SDS011;21133;48.048;7.724;2022-07-23T11:00:26;4.20;;;4.00;;
34928;SDS011;21133;48.048;7.724;2022-07-23T11:02:54;5.20;;;5.00;;
34928;SDS011;21133;48.048;7.724;2022-07-23T11:05:24;5.60;;;4.60;;
34928;SDS011;21133;48.048;7.724;2022-07-23T11:10:35;5.33;;;5.00;;
34928;SDS011;21133;48.048;7.724;2022-07-23T11:24:08;5.47;;;5.03;;
34928;SDS011;21133;48.048;7.724;2022-07-23T11:26:52;5.97;;;5.77;;
34928;SDS011;21133;48.048;7.724;2022-07-23T11:34:31;6.77;;;5.77;;
34928;SDS011;21133;48.048;7.724;2022-07-23T11:36:57;6.23;;;5.80;;
34928;SDS011;21133;48.048;7.724;2022-07-23T11:39:24;5.77;;;5.57;;
34928;SDS011;21133;48.048;7.724;2022-07-23T11:41:51;6.70;;;6.30;;
34928;SDS011;21133;48.048;7.724;2022-07-23T11:44:30;6.20;;;5.90;;
34928;SDS011;21133;48.048;7.724;2022-07-23T11:46:57;6.10;;;5.60;;
34928;SDS011;21133;48.048;7.724;2022-07-23T11:49:24;5.63;;;5.40;;
34928;SDS011;21133;48.048;7.724;2022-07-23T11:52:11;6.17;;;5.87;;
34928;SDS011;21133;48.048;7.724;2022-07-23T11:54:48;6.43;;;6.03;;
34928;SDS011;21133;48.048;7.724;2022-07-23T11:57:15;6.40;;;5.80;;
34928;SDS011;21133;48.048;7.724;2022-07-23T11:59:41;5.70;;;5.50;;
34928;SDS011;21133;48.048;7.724;2022-07-23T12:02:07;7.07;;;6.50;;
34928;SDS011;21133;48.048;7.724;2022-07-23T12:04:43;8.53;;;7.70;;
34928;SDS011;21133;48.048;7.724;2022-07-23T12:07:25;6.57;;;6.17;;
34928;SDS011;21133;48.048;7.724;2022-07-23T12:09:52;10.93;;;6.60;;
34928;SDS011;21133;48.048;7.724;2022-07-23T12:12:18;7.43;;;6.80;;
34928;SDS011;21133;48.048;7.724;2022-07-23T12:14:48;9.07;;;7.80;;
34928;SDS011;21133;48.048;7.724;2022-07-23T12:17:14;8.17;;;7.57;;
34928;SDS011;21133;48.048;7.724;2022-07-23T12:19:40;6.67;;;6.30;;
34928;SDS011;21133;48.048;7.724;2022-07-23T12:22:07;7.10;;;6.57;;
34928;SDS011;21133;48.048;7.724;2022-07-23T12:24:52;9.37;;;8.53;;
34928;SDS011;21133;48.048;7.724;2022-07-23T12:27:20;7.27;;;6.70;;
34928;SDS011;21133;48.048;7.724;2022-07-23T12:29:46;6.60;;;6.27;;
34928;SDS011;21133;48.048;7.724;2022-07-23T12:35:00;5.83;;;5.53;;
34928;SDS011;21133;48.048;7.724;2022-07-23T12:37:28;8.93;;;6.93;;
34928;SDS011;21133;48.048;7.724;2022-07-23T12:39:54;8.13;;;6.77;;
34928;SDS011;21133;48.048;7.724;2022-07-23T12:42:20;7.90;;;7.13;;
34928;SDS011;21133;48.048;7.724;2022-07-23T12:45:03;7.80;;;7.27;;
34928;SDS011;21133;48.048;7.724;2022-07-23T12:47:29;7.50;;;7.00;;
34928;SDS011;21133;48.048;7.724;2022-07-23T12:49:55;7.30;;;6.80;;
34928;SDS011;21133;48.048;7.724;2022-07-23T12:52:21;7.17;;;6.53;;
34928;SDS011;21133;48.048;7.724;2022-07-23T12:54:47;6.80;;;6.37;;
34928;SDS011;21133;48.048;7.724;2022-07-23T12:57:13;7.53;;;7.07;;
34928;SDS011;21133;48.048;7.724;2022-07-23T12:59:39;7.10;;;6.50;;
34928;SDS011;21133;48.048;7.724;2022-07-23T13:02:07;7.33;;;6.73;;
34928;SDS011;21133;48.048;7.724;2022-07-23T13:04:33;6.33;;;6.03;;
34928;SDS011;21133;48.048;7.724;2022-07-23T13:06:59;6.57;;;6.07;;
34928;SDS011;21133;48.048;7.724;2022-07-23T13:09:27;8.60;;;7.80;;
34928;SDS011;21133;48.048;7.724;2022-07-23T13:11:55;7.87;;;7.07;;
34928;SDS011;21133;48.048;7.724;2022-07-23T13:14:22;6.67;;;6.27;;
34928;SDS011;21133;48.048;7.724;2022-07-23T13:16:49;6.63;;;6.33;;
34928;SDS011;21133;48.048;7.724;2022-07-23T13:19:15;7.00;;;6.47;;
34928;SDS011;21133;48.048;7.724;2022-07-23T13:21:41;7.20;;;6.80;;
34928;SDS011;21133;48.048;7.724;2022-07-23T13:24:08;11.43;;;7.07;;
34928;SDS011;21133;48.048;7.724;2022-07-23T13:26:35;13.33;;;6.67;;
34928;SDS011;21133;48.048;7.724;2022-07-23T13:29:01;6.47;;;5.97;;
34928;SDS011;21133;48.048;7.724;2022-07-23T13:31:27;16.53;;;7.30;;
34928;SDS011;21133;48.048;7.724;2022-07-23T13:33:53;9.40;;;6.23;;
34928;SDS011;21133;48.048;7.724;2022-07-23T13:36:19;7.50;;;6.90;;
34928;SDS011;21133;48.048;7.724;2022-07-23T13:38:45;7.27;;;6.77;;
34928;SDS011;21133;48.048;7.724;2022-07-23T13:41:11;7.03;;;6.70;;
34928;SDS011;21133;48.048;7.724;2022-07-23T13:43:37;8.17;;;7.00;;
34928;SDS011;21133;48.048;7.724;2022-07-23T13:46:03;7.80;;;7.30;;
34928;SDS011;21133;48.048;7.724;2022-07-23T13:48:29;7.10;;;6.70;;
34928;SDS011;21133;48.048;7.724;2022-07-23T13:50:55;6.37;;;5.97;;
34928;SDS011;21133;48.048;7.724;2022-07-23T13:53:23;5.90;;;5.70;;
34928;SDS011;21133;48.048;7.724;2022-07-23T13:55:50;8.03;;;7.53;;
34928;SDS011;21133;48.048;7.724;2022-07-23T13:58:17;6.00;;;5.60;;
34928;SDS011;21133;48.048;7.724;2022-07-23T14:00:44;7.57;;;6.87;;
34928;SDS011;21133;48.048;7.724;2022-07-23T14:03:11;6.93;;;6.33;;
34928;SDS011;21133;48.048;7.724;2022-07-23T14:05:37;7.50;;;7.00;;
34928;SDS011;21133;48.048;7.724;2022-07-23T14:08:03;15.67;;;7.50;;
34928;SDS011;21133;48.048;7.724;2022-07-23T14:10:29;6.40;;;6.00;;
34928;SDS011;21133;48.048;7.724;2022-07-23T14:12:55;7.23;;;6.73;;
34928;SDS011;21133;48.048;7.724;2022-07-23T14:15:23;6.50;;;6.20;;
34928;SDS011;21133;48.048;7.724;2022-07-23T14:17:49;6.90;;;6.50;;
34928;SDS011;21133;48.048;7.724;2022-07-23T14:20:15;6.30;;;6.10;;
34928;SDS011;21133;48.048;7.724;2022-07-23T14:22:41;6.90;;;6.40;;
34928;SDS011;21133;48.048;7.724;2022-07-23T14:25:08;8.07;;;7.40;;
34928;SDS011;21133;48.048;7.724;2022-07-23T14:27:34;8.00;;;6.47;;
34928;SDS011;21133;48.048;7.724;2022-07-23T14:30:02;5.83;;;5.50;;
34928;SDS011;21133;48.048;7.724;2022-07-23T14:32:29;7.37;;;6.73;;
34928;SDS011;21133;48.048;7.724;2022-07-23T14:34:54;9.33;;;6.40;;
34928;SDS011;21133;48.048;7.724;2022-07-23T14:37:20;7.00;;;6.40;;
34928;SDS011;21133;48.048;7.724;2022-07-23T14:39:47;6.80;;;6.50;;
34928;SDS011;21133;48.048;7.724;2022-07-23T14:42:13;6.13;;;5.83;;
34928;SDS011;21133;48.048;7.724;2022-07-23T14:44:39;7.87;;;6.30;;
34928;SDS011;21133;48.048;7.724;2022-07-23T14:47:07;9.70;;;6.10;;
34928;SDS011;21133;48.048;7.724;2022-07-23T14:49:33;6.40;;;6.10;;
34928;SDS011;21133;48.048;7.724;2022-07-23T14:51:59;6.40;;;5.87;;
34928;SDS011;21133;48.048;7.724;2022-07-23T14:54:26;7.03;;;6.53;;
34928;SDS011;21133;48.048;7.724;2022-07-23T14:56:53;6.33;;;6.00;;
34928;SDS011;21133;48.048;7.724;2022-07-23T14:59:19;7.20;;;6.80;;
34928;SDS011;21133;48.048;7.724;2022-07-23T15:01:45;7.00;;;6.70;;
34928;SDS011;21133;48.048;7.724;2022-07-23T15:04:11;7.57;;;6.73;;
34928;SDS011;21133;48.048;7.724;2022-07-23T15:06:37;6.50;;;6.20;;
34928;SDS011;21133;48.048;7.724;2022-07-23T15:09:03;6.53;;;5.93;;
34928;SDS011;21133;48.048;7.724;2022-07-23T15:11:30;7.37;;;6.47;;
34928;SDS011;21133;48.048;7.724;2022-07-23T15:13:58;9.93;;;6.30;;
34928;SDS011;21133;48.048;7.724;2022-07-23T15:16:24;6.30;;;5.90;;
34928;SDS011;21133;48.048;7.724;2022-07-23T15:18:50;6.60;;;6.10;;
34928;SDS011;21133;48.048;7.724;2022-07-23T15:21:16;6.93;;;6.47;;
34928;SDS011;21133;48.048;7.724;2022-07-23T15:23:42;6.53;;;6.20;;
34928;SDS011;21133;48.048;7.724;2022-07-23T15:26:08;6.80;;;6.30;;
34928;SDS011;21133;48.048;7.724;2022-07-23T15:28:34;6.93;;;6.40;;